Athens, Greece
Current Conditions -  °F | °C
As of 4:50 PM on Monday 26 Jan 2015 (Local Time) from LGEL Reporting Station
Scattered Clouds Scattered Clouds  
Wind Chill: 15°   Ceiling: Unl
Heat Index: 15°   Visibility: 6mi
Dew Point:   Wind: 9mph
Humidity: 63%   Direction: 160°SSE
Pressure: 29.97"   Gusts: NA
Location:  37.98°N, 23.73°E
Report Text: LGEL 261350Z 16008KT 9999 FEW018TCU SCT025 15/08 Q1015
Loading
Personal Weather Stations






























Interactive Weather Map New forecast layout! Learn more

10-Day Weather Forecast

Advertisements
Track Severe Weather on mobile